메인 페이지
METAR-TAF:

METAR-TAF

공항 :

레오나르도 다 빈치 국제공항

로마 피우미치노, 이탈리아

위도: 41-48N, 경도: 012-14E, 고도: 2m

현재 날씨관측

예보는 17분 전, 18:20시(UTC)에 발표되었습니다.
북서6kt
온도 10°C
습도 76%
기압 1025 hPa
시정 10km 이상
1500m 미만 상공 구름 및 적란운 없음

METAR: LIRF 201820Z 31006KT CAVOK 10/06 Q1025 NOSIG

시각: 19:37 (18:37 UTC)

예보

예보는 1 시간 37분 전, 17:00시(UTC)에 발표되었습니다.
예보 대상 시간: 20일 18시부터 21일 24시까지 (UTC)
여러 방향의 바람 5kt
시정 10km 이상
고도 2000ft 상공 구름 조금
전환 중
21일 10시부터 21일 12시까지 (UTC)
북서10kt

TAF: LIRF 201700Z 2018/2124 VRB05KT 9999 FEW020 BECMG 2110/2112 31010KT

4,000개 이상의 공항 관측 자료 및 예보 (METAR 및 TAF 보고).

지도상에서 검색 가능한 기상관측소가 노란 점과 빨간 점으로 표시되어 있습니다.

기상관측소 명을 보려면 표시 위로 마우스를 이동하세요.

날씨 관측과 예보를 보려면 클릭하세요.

지도 변경 : 확대하려면 엑스 표시가 있는 녹색 버튼, 축소하려면 빼기 표시가 있는 녹색 버튼, 다음 페이지의 지도를 보려면 녹색 화살표를 클릭하세요.


METAR-TAF: